Time;durP1;ratioP1;P1;durP2;ratioP2;P2;SDS_P1;SDS_P2;PMS_P1;PMS_P2;Temp;Humidity;BMP_temperature;BMP_pressure;BME280_temperature;BME280_humidity;BME280_pressure;Samples;Min_cycle;Max_cycle;Signal;HPM_P1;HPM_P2
2022/06/28 00:00:08;;;;;;;9.75;5.75;;;;;;;;;;5058238;28;20090;-77
2022/06/28 00:02:34;;;;;;;8.73;6.63;;;;;;;;;;5057457;28;20033;-80
2022/06/28 00:05:00;;;;;;;14.43;7.38;;;;;;;;;;5049421;28;20021;-81
2022/06/28 00:07:25;;;;;;;9.93;6.47;;;;;;;;;;5049957;28;20044;-78
2022/06/28 00:09:51;;;;;;;8.20;6.78;;;;;;;;;;5048828;28;20028;-79
2022/06/28 00:12:16;;;;;;;10.27;7.32;;;;;;;;;;5050412;28;20130;-81
2022/06/28 00:17:26;;;;;;;6.38;5.00;;;;;;;;;;5049961;28;20031;-78
2022/06/28 00:19:52;;;;;;;11.00;5.68;;;;;;;;;;5049402;28;20128;-79
2022/06/28 00:22:17;;;;;;;5.82;4.65;;;;;;;;;;5050569;28;20104;-81
2022/06/28 00:24:43;;;;;;;7.30;4.47;;;;;;;;;;5039100;28;20567;-80
2022/06/28 00:27:09;;;;;;;7.63;4.47;;;;;;;;;;5028674;28;20033;-80
2022/06/28 00:29:34;;;;;;;7.85;3.97;;;;;;;;;;5030046;28;20049;-80
2022/06/28 00:32:00;;;;;;;4.93;3.33;;;;;;;;;;5030302;28;20432;-80
2022/06/28 00:34:25;;;;;;;6.32;3.50;;;;;;;;;;5028552;28;20389;-79
2022/06/28 00:36:51;;;;;;;5.80;3.80;;;;;;;;;;5028782;28;20079;-79
2022/06/28 00:39:16;;;;;;;4.40;3.10;;;;;;;;;;5057233;28;20025;-75
2022/06/28 00:41:42;;;;;;;13.40;3.20;;;;;;;;;;5046706;28;20117;-78
2022/06/28 00:44:11;;;;;;;7.75;3.58;;;;;;;;;;5035848;28;20108;-77
2022/06/28 00:46:37;;;;;;;6.20;3.33;;;;;;;;;;5028513;28;20477;-77
2022/06/28 00:49:04;;;;;;;4.88;3.38;;;;;;;;;;5044918;28;20029;-79
2022/06/28 00:51:30;;;;;;;4.63;3.03;;;;;;;;;;5028114;28;20033;-79
2022/06/28 00:53:56;;;;;;;3.92;2.95;;;;;;;;;;5029536;28;20021;-80
2022/06/28 00:56:22;;;;;;;6.53;3.42;;;;;;;;;;5028025;28;20036;-79
2022/06/28 00:58:48;;;;;;;3.83;2.42;;;;;;;;;;5029474;28;20026;-79
2022/06/28 01:01:14;;;;;;;3.25;2.70;;;;;;;;;;5028181;28;20112;-79
2022/06/28 01:03:39;;;;;;;3.80;2.25;;;;;;;;;;5029410;28;20021;-79
2022/06/28 01:06:05;;;;;;;2.55;2.28;;;;;;;;;;5027895;28;20422;-79
2022/06/28 01:08:31;;;;;;;2.90;2.22;;;;;;;;;;5028371;28;20477;-78
2022/06/28 01:10:56;;;;;;;3.70;2.58;;;;;;;;;;5033014;28;20048;-80
2022/06/28 01:13:22;;;;;;;7.72;2.38;;;;;;;;;;5031789;28;20036;-79
2022/06/28 01:15:47;;;;;;;2.70;2.50;;;;;;;;;;5031466;28;20040;-77
2022/06/28 01:18:13;;;;;;;6.22;2.53;;;;;;;;;;5015141;28;20128;-78
2022/06/28 01:20:44;;;;;;;3.17;2.75;;;;;;;;;;5031108;28;20041;-78
2022/06/28 01:23:10;;;;;;;4.72;2.83;;;;;;;;;;5044030;28;20048;-80
2022/06/28 01:25:36;;;;;;;4.65;2.40;;;;;;;;;;5050942;28;20064;-77
2022/06/28 01:28:02;;;;;;;3.33;2.70;;;;;;;;;;5051279;28;20029;-80
2022/06/28 01:30:27;;;;;;;4.15;2.72;;;;;;;;;;5051102;28;20128;-79
2022/06/28 01:32:54;;;;;;;3.85;2.35;;;;;;;;;;5051194;28;20025;-80
2022/06/28 01:35:19;;;;;;;3.92;2.60;;;;;;;;;;5051048;28;20591;-79
2022/06/28 01:37:46;;;;;;;6.80;2.83;;;;;;;;;;5052552;28;20029;-79
2022/06/28 01:40:12;;;;;;;5.10;3.42;;;;;;;;;;5052329;28;20056;-80
2022/06/28 01:42:37;;;;;;;6.13;3.33;;;;;;;;;;5067481;28;20029;-80
2022/06/28 01:45:04;;;;;;;4.13;3.25;;;;;;;;;;5052731;28;20033;-80
2022/06/28 01:47:38;;;;;;;7.28;3.55;;;;;;;;;;5052299;28;20056;-79
2022/06/28 01:50:04;;;;;;;5.78;3.20;;;;;;;;;;5051763;28;20412;-80
2022/06/28 01:52:29;;;;;;;5.50;4.18;;;;;;;;;;5053061;28;20039;-80
2022/06/28 01:54:55;;;;;;;3.30;2.58;;;;;;;;;;5052810;28;20033;-80
2022/06/28 01:57:21;;;;;;;8.00;3.42;;;;;;;;;;5052683;28;20033;-80
2022/06/28 01:59:47;;;;;;;3.30;2.78;;;;;;;;;;5050815;28;20047;-80
2022/06/28 02:02:12;;;;;;;3.83;2.53;;;;;;;;;;5052147;28;20024;-80
2022/06/28 02:04:38;;;;;;;8.05;3.00;;;;;;;;;;5050889;28;20051;-75
2022/06/28 02:07:04;;;;;;;6.57;3.00;;;;;;;;;;5054159;28;20028;-78
2022/06/28 02:09:29;;;;;;;4.55;2.85;;;;;;;;;;5056045;28;20029;-78
2022/06/28 02:11:55;;;;;;;5.03;3.05;;;;;;;;;;5050284;28;20396;-78
2022/06/28 02:14:20;;;;;;;5.72;2.88;;;;;;;;;;5050282;28;20503;-78
2022/06/28 02:16:46;;;;;;;4.13;3.10;;;;;;;;;;5051893;28;20028;-79
2022/06/28 02:19:12;;;;;;;4.88;3.75;;;;;;;;;;5051718;28;20362;-80
2022/06/28 02:21:40;;;;;;;7.07;4.07;;;;;;;;;;5050335;28;20088;-79
2022/06/28 02:24:07;;;;;;;5.60;4.03;;;;;;;;;;5012106;28;20477;-79
2022/06/28 02:26:33;;;;;;;6.57;4.38;;;;;;;;;;5011854;28;20087;-78
2022/06/28 02:29:03;;;;;;;7.07;3.70;;;;;;;;;;5011988;28;20787;-80
2022/06/28 02:31:29;;;;;;;5.60;3.85;;;;;;;;;;5011571;28;21017;-77
2022/06/28 02:33:55;;;;;;;9.25;4.53;;;;;;;;;;5024065;28;20029;-78
2022/06/28 02:41:38;;;;;;;5.32;3.75;;;;;;;;;;5012232;28;20398;-80
2022/06/28 02:44:04;;;;;;;5.57;3.83;;;;;;;;;;5010497;28;20037;-78
2022/06/28 02:46:30;;;;;;;5.32;3.92;;;;;;;;;;5010441;28;20022;-79
2022/06/28 02:48:56;;;;;;;7.78;4.70;;;;;;;;;;5026807;28;20089;-79
2022/06/28 02:51:22;;;;;;;17.33;6.75;;;;;;;;;;5010428;28;20451;-77
2022/06/28 02:53:49;;;;;;;7.28;4.85;;;;;;;;;;5011445;28;20052;-78
2022/06/28 02:56:15;;;;;;;6.20;4.63;;;;;;;;;;5010537;28;20029;-80
2022/06/28 02:58:40;;;;;;;11.60;4.75;;;;;;;;;;5011932;28;20393;-79
2022/06/28 03:01:06;;;;;;;15.07;8.10;;;;;;;;;;5010442;28;20030;-79
2022/06/28 03:03:32;;;;;;;5.75;4.45;;;;;;;;;;5026877;28;20033;-78
2022/06/28 03:05:57;;;;;;;5.88;4.32;;;;;;;;;;5011528;28;20463;-80
2022/06/28 03:08:23;;;;;;;10.55;5.78;;;;;;;;;;5009721;28;20029;-79
2022/06/28 03:10:48;;;;;;;7.60;5.07;;;;;;;;;;5011346;28;20097;-80
2022/06/28 03:13:14;;;;;;;10.07;5.55;;;;;;;;;;5011230;28;20466;-78
2022/06/28 03:15:40;;;;;;;9.57;7.35;;;;;;;;;;5011381;28;20081;-80
2022/06/28 03:18:05;;;;;;;14.65;7.97;;;;;;;;;;5010979;28;20513;-78
2022/06/28 03:20:31;;;;;;;11.43;7.07;;;;;;;;;;5009248;28;20425;-78
2022/06/28 03:22:57;;;;;;;14.02;7.57;;;;;;;;;;5031475;28;20128;-79
2022/06/28 03:25:23;;;;;;;11.48;6.72;;;;;;;;;;5049382;28;20130;-80
2022/06/28 03:27:49;;;;;;;12.98;7.22;;;;;;;;;;5050287;28;20048;-80
2022/06/28 03:30:15;;;;;;;9.95;8.00;;;;;;;;;;5050829;28;20025;-79
2022/06/28 03:32:40;;;;;;;12.80;8.88;;;;;;;;;;5048295;28;20021;-79
2022/06/28 03:35:07;;;;;;;11.13;8.18;;;;;;;;;;5049344;28;20370;-79
2022/06/28 03:37:34;;;;;;;10.35;8.32;;;;;;;;;;5049101;28;20488;-78
2022/06/28 03:40:01;;;;;;;12.88;8.48;;;;;;;;;;5048945;28;20025;-79
2022/06/28 03:42:27;;;;;;;15.13;7.97;;;;;;;;;;5048694;28;20143;-77
2022/06/28 03:44:52;;;;;;;13.63;8.15;;;;;;;;;;5048506;28;20124;-78
2022/06/28 03:47:18;;;;;;;12.57;7.90;;;;;;;;;;5049945;28;20063;-80
2022/06/28 03:49:44;;;;;;;9.88;8.15;;;;;;;;;;5049944;28;20036;-77
2022/06/28 03:52:09;;;;;;;11.70;7.82;;;;;;;;;;5048956;28;20588;-79
2022/06/28 03:54:35;;;;;;;12.65;8.73;;;;;;;;;;5048959;28;20023;-79
2022/06/28 03:57:01;;;;;;;9.25;7.20;;;;;;;;;;5050400;28;20425;-77
2022/06/28 03:59:27;;;;;;;10.52;7.00;;;;;;;;;;5033465;28;20116;-78
2022/06/28 04:01:52;;;;;;;10.55;6.70;;;;;;;;;;5050106;28;20028;-79
2022/06/28 04:04:18;;;;;;;8.65;6.45;;;;;;;;;;5051853;28;20054;-81
2022/06/28 04:06:43;;;;;;;11.82;5.90;;;;;;;;;;5060311;28;20051;-78
2022/06/28 04:09:09;;;;;;;11.10;5.63;;;;;;;;;;5059772;28;20137;-78
2022/06/28 04:11:34;;;;;;;10.13;5.25;;;;;;;;;;5062334;28;20012;-75
2022/06/28 04:14:00;;;;;;;8.18;5.10;;;;;;;;;;5062014;28;20085;-76
2022/06/28 04:16:25;;;;;;;7.05;4.55;;;;;;;;;;5058438;28;20013;-77
2022/06/28 04:18:51;;;;;;;6.57;5.10;;;;;;;;;;5067378;28;20059;-78
2022/06/28 04:21:18;;;;;;;11.65;5.82;;;;;;;;;;5051456;28;20519;-79
2022/06/28 04:23:44;;;;;;;8.07;5.35;;;;;;;;;;5049520;28;20036;-78
2022/06/28 04:26:10;;;;;;;9.73;5.50;;;;;;;;;;5049383;28;20362;-79
2022/06/28 04:28:36;;;;;;;9.40;6.40;;;;;;;;;;5049580;28;20060;-80
2022/06/28 04:31:02;;;;;;;7.85;6.43;;;;;;;;;;5049229;28;20457;-79
2022/06/28 04:33:28;;;;;;;12.90;6.63;;;;;;;;;;5049131;28;20393;-79
2022/06/28 04:35:54;;;;;;;9.07;7.35;;;;;;;;;;5048039;28;20021;-79
2022/06/28 04:38:19;;;;;;;10.70;7.28;;;;;;;;;;5050235;28;20029;-78
2022/06/28 04:40:46;;;;;;;6.57;5.47;;;;;;;;;;5060252;28;20032;-78
2022/06/28 04:43:12;;;;;;;8.98;5.85;;;;;;;;;;5054411;28;20118;-78
2022/06/28 04:45:38;;;;;;;9.60;5.40;;;;;;;;;;5029887;28;20054;-78
2022/06/28 04:48:04;;;;;;;6.90;5.75;;;;;;;;;;5035181;28;20442;-80
2022/06/28 04:50:30;;;;;;;10.50;5.30;;;;;;;;;;5014627;28;20442;-79
2022/06/28 04:52:56;;;;;;;9.25;5.60;;;;;;;;;;5013955;28;20097;-80
2022/06/28 04:55:21;;;;;;;9.15;5.80;;;;;;;;;;5027965;28;20513;-78
2022/06/28 04:57:47;;;;;;;10.50;5.50;;;;;;;;;;5033098;28;20104;-76
2022/06/28 05:00:13;;;;;;;11.35;5.75;;;;;;;;;;5034154;28;20543;-80
2022/06/28 05:02:39;;;;;;;9.60;6.18;;;;;;;;;;5032388;28;20040;-79
2022/06/28 05:05:07;;;;;;;15.07;7.18;;;;;;;;;;5031319;28;20021;-79
2022/06/28 05:07:33;;;;;;;10.68;6.40;;;;;;;;;;5032444;28;20025;-79
2022/06/28 05:09:59;;;;;;;15.73;6.90;;;;;;;;;;5013574;28;20029;-79
2022/06/28 05:12:24;;;;;;;13.43;7.30;;;;;;;;;;5021881;28;20025;-78
2022/06/28 05:14:50;;;;;;;12.35;7.72;;;;;;;;;;5032685;28;20021;-78
2022/06/28 05:17:16;;;;;;;14.93;8.00;;;;;;;;;;5047884;28;20334;-78
2022/06/28 05:19:41;;;;;;;11.65;7.85;;;;;;;;;;5030837;28;20030;-79
2022/06/28 05:22:08;;;;;;;12.27;7.00;;;;;;;;;;5036064;28;20048;-78
2022/06/28 05:24:35;;;;;;;14.70;7.82;;;;;;;;;;5033488;28;20032;-78
2022/06/28 05:27:00;;;;;;;14.38;8.10;;;;;;;;;;5028944;28;20033;-80
2022/06/28 05:29:26;;;;;;;19.90;8.50;;;;;;;;;;5019902;28;20072;-84
2022/06/28 05:31:51;;;;;;;12.90;9.07;;;;;;;;;;5036492;28;20472;-78
2022/06/28 05:34:17;;;;;;;12.80;8.23;;;;;;;;;;5042176;28;20027;-76
2022/06/28 05:36:43;;;;;;;12.98;8.15;;;;;;;;;;5035251;28;20056;-76
2022/06/28 05:39:09;;;;;;;13.02;8.90;;;;;;;;;;5050221;28;20030;-76
2022/06/28 05:41:36;;;;;;;21.50;9.13;;;;;;;;;;5036170;28;20588;-75
2022/06/28 05:44:02;;;;;;;11.57;7.53;;;;;;;;;;5025172;28;20104;-75
2022/06/28 05:46:28;;;;;;;12.77;7.70;;;;;;;;;;5022400;28;20026;-75
2022/06/28 05:48:54;;;;;;;17.60;9.02;;;;;;;;;;5049444;28;20140;-79
2022/06/28 05:51:19;;;;;;;23.42;9.80;;;;;;;;;;5022777;28;20447;-83
2022/06/28 05:53:46;;;;;;;12.98;8.40;;;;;;;;;;5029590;28;20478;-75
2022/06/28 05:56:13;;;;;;;21.13;9.18;;;;;;;;;;5021621;28;20040;-80
2022/06/28 05:58:39;;;;;;;19.75;9.32;;;;;;;;;;5031731;28;20031;-76
2022/06/28 06:01:04;;;;;;;13.77;8.48;;;;;;;;;;5038357;28;20124;-75
2022/06/28 06:03:32;;;;;;;22.92;8.40;;;;;;;;;;5031161;28;20536;-73
2022/06/28 06:05:57;;;;;;;14.05;7.47;;;;;;;;;;5025069;28;20021;-77
2022/06/28 06:08:23;;;;;;;14.38;8.90;;;;;;;;;;5041980;28;20033;-78
2022/06/28 06:10:49;;;;;;;12.75;7.97;;;;;;;;;;5033205;28;20393;-79
2022/06/28 06:13:15;;;;;;;13.85;8.65;;;;;;;;;;5026303;28;20046;-78
2022/06/28 06:15:41;;;;;;;11.32;7.43;;;;;;;;;;5023133;28;20031;-76
2022/06/28 06:18:07;;;;;;;10.00;6.80;;;;;;;;;;5032116;28;20124;-73
2022/06/28 06:20:33;;;;;;;13.90;7.32;;;;;;;;;;5026976;28;20141;-76
2022/06/28 06:22:59;;;;;;;85.63;13.75;;;;;;;;;;5029984;28;20032;-78
2022/06/28 06:25:27;;;;;;;13.27;6.78;;;;;;;;;;5032150;28;20032;-77
2022/06/28 06:27:52;;;;;;;15.27;8.43;;;;;;;;;;5046997;28;20021;-78
2022/06/28 06:30:27;;;;;;;19.20;9.63;;;;;;;;;;5044455;28;20389;-80
2022/06/28 06:32:52;;;;;;;14.45;8.52;;;;;;;;;;5032605;28;20067;-80
2022/06/28 06:35:18;;;;;;;19.00;9.45;;;;;;;;;;5026879;28;20037;-76
2022/06/28 06:37:44;;;;;;;20.63;8.48;;;;;;;;;;5025650;28;20029;-77
2022/06/28 06:40:10;;;;;;;13.65;8.18;;;;;;;;;;5029219;28;20547;-78
2022/06/28 06:42:35;;;;;;;13.43;7.97;;;;;;;;;;5033024;28;20658;-80
2022/06/28 06:45:02;;;;;;;12.38;7.93;;;;;;;;;;5031779;28;20081;-77
2022/06/28 06:47:27;;;;;;;16.15;9.30;;;;;;;;;;5033467;28;20025;-76
2022/06/28 06:49:53;;;;;;;16.77;7.85;;;;;;;;;;5036716;28;20576;-81
2022/06/28 06:52:18;;;;;;;15.90;8.45;;;;;;;;;;5030478;28;20025;-78
2022/06/28 06:54:45;;;;;;;21.08;11.68;;;;;;;;;;5041658;28;20033;-73
2022/06/28 06:57:11;;;;;;;30.75;14.70;;;;;;;;;;5034630;28;20036;-82
2022/06/28 06:59:36;;;;;;;15.00;8.40;;;;;;;;;;5021854;28;20030;-78
2022/06/28 07:02:02;;;;;;;15.55;9.30;;;;;;;;;;5026558;28;20438;-80
2022/06/28 07:04:29;;;;;;;19.63;9.65;;;;;;;;;;4991748;28;20044;-78
2022/06/28 07:06:56;;;;;;;21.20;10.05;;;;;;;;;;5029950;28;20037;-74
2022/06/28 07:09:23;;;;;;;13.27;8.88;;;;;;;;;;5039502;28;20583;-76
2022/06/28 07:11:48;;;;;;;15.10;9.63;;;;;;;;;;5035294;28;20131;-75
2022/06/28 07:14:16;;;;;;;14.35;9.80;;;;;;;;;;5014512;28;20581;-75
2022/06/28 07:16:42;;;;;;;18.17;10.18;;;;;;;;;;5013456;28;20577;-77
2022/06/28 07:19:08;;;;;;;15.18;10.20;;;;;;;;;;5015016;28;20040;-76
2022/06/28 07:21:34;;;;;;;16.23;8.85;;;;;;;;;;5012976;28;20050;-79
2022/06/28 07:24:01;;;;;;;14.38;8.63;;;;;;;;;;5009715;28;20029;-73
2022/06/28 07:26:26;;;;;;;15.07;8.85;;;;;;;;;;5012542;28;20653;-76
2022/06/28 07:28:52;;;;;;;15.90;9.85;;;;;;;;;;5015252;28;20068;-78
2022/06/28 07:31:21;;;;;;;21.40;9.82;;;;;;;;;;5003262;28;20034;-78
2022/06/28 07:33:47;;;;;;;18.08;10.55;;;;;;;;;;5011956;28;20032;-78
2022/06/28 07:36:15;;;;;;;14.80;9.80;;;;;;;;;;5015594;28;20034;-75
2022/06/28 07:38:41;;;;;;;12.52;8.80;;;;;;;;;;5036392;28;20028;-77
2022/06/28 07:41:06;;;;;;;16.70;9.95;;;;;;;;;;5023622;28;20038;-78
2022/06/28 07:43:32;;;;;;;15.40;10.07;;;;;;;;;;5025242;28;20044;-74
2022/06/28 07:45:58;;;;;;;17.55;9.60;;;;;;;;;;5026912;28;20045;-76
2022/06/28 07:48:24;;;;;;;16.00;9.73;;;;;;;;;;5028362;28;20033;-74
2022/06/28 07:53:35;;;;;;;16.70;12.68;;;;;;;;;;5020196;28;20041;-75
2022/06/28 07:56:01;;;;;;;19.20;10.57;;;;;;;;;;5018240;28;20034;-77
2022/06/28 07:58:27;;;;;;;14.82;10.27;;;;;;;;;;5024798;28;20026;-77
2022/06/28 08:00:52;;;;;;;19.63;11.05;;;;;;;;;;5018791;28;20426;-78
2022/06/28 08:03:18;;;;;;;29.35;10.65;;;;;;;;;;5013884;28;20042;-75
2022/06/28 08:05:44;;;;;;;22.38;12.90;;;;;;;;;;5021725;28;20080;-79
2022/06/28 08:08:10;;;;;;;16.08;10.77;;;;;;;;;;5008671;28;20029;-78
2022/06/28 08:10:36;;;;;;;19.20;10.32;;;;;;;;;;5010549;28;20037;-80
2022/06/28 08:13:01;;;;;;;19.23;10.70;;;;;;;;;;5006013;28;20106;-78
2022/06/28 08:15:30;;;;;;;17.23;11.10;;;;;;;;;;5001046;28;20418;-77
2022/06/28 08:17:56;;;;;;;15.50;10.35;;;;;;;;;;5010281;28;20513;-76
2022/06/28 08:20:21;;;;;;;16.15;10.30;;;;;;;;;;5025223;28;20153;-78
2022/06/28 08:22:48;;;;;;;22.08;11.35;;;;;;;;;;5016671;28;20029;-75
2022/06/28 08:25:13;;;;;;;22.92;11.38;;;;;;;;;;5011985;28;20036;-79
2022/06/28 08:27:39;;;;;;;21.02;12.85;;;;;;;;;;5021007;28;20033;-75
2022/06/28 08:30:07;;;;;;;19.40;12.38;;;;;;;;;;5022533;28;20041;-78
2022/06/28 08:32:32;;;;;;;62.90;15.98;;;;;;;;;;5011336;28;20477;-72
2022/06/28 08:34:58;;;;;;;23.52;12.10;;;;;;;;;;5003080;28;20034;-74
2022/06/28 08:37:24;;;;;;;45.80;13.85;;;;;;;;;;5007884;28;20028;-79
2022/06/28 08:39:50;;;;;;;55.40;17.40;;;;;;;;;;5013375;28;20638;-76
2022/06/28 08:42:26;;;;;;;31.58;13.40;;;;;;;;;;5010206;28;20045;-78
2022/06/28 08:44:52;;;;;;;18.33;12.30;;;;;;;;;;5005697;28;20033;-75
2022/06/28 08:47:22;;;;;;;25.52;13.35;;;;;;;;;;5009595;28;20038;-76
2022/06/28 08:49:57;;;;;;;24.47;14.00;;;;;;;;;;5012122;28;20130;-78
2022/06/28 08:52:23;;;;;;;20.65;13.57;;;;;;;;;;5020965;28;20286;-80
2022/06/28 08:54:51;;;;;;;28.77;14.18;;;;;;;;;;5009162;28;20037;-74
2022/06/28 08:57:19;;;;;;;25.40;14.00;;;;;;;;;;5014787;28;20040;-78
2022/06/28 08:59:47;;;;;;;25.65;14.57;;;;;;;;;;5020947;28;20033;-75
2022/06/28 09:02:14;;;;;;;26.15;14.95;;;;;;;;;;5008602;28;20421;-75
2022/06/28 09:04:50;;;;;;;55.10;16.95;;;;;;;;;;5021059;28;20036;-77
2022/06/28 09:07:16;;;;;;;28.92;14.15;;;;;;;;;;5021150;28;20741;-78
2022/06/28 09:09:43;;;;;;;24.77;14.68;;;;;;;;;;5010848;28;20057;-79
2022/06/28 09:12:10;;;;;;;24.30;14.90;;;;;;;;;;5030688;28;20056;-77
2022/06/28 09:14:36;;;;;;;32.90;17.35;;;;;;;;;;5029458;28;20044;-77
2022/06/28 09:17:27;;;;;;;30.48;15.05;;;;;;;;;;5013716;28;20037;-79
2022/06/28 09:19:57;;;;;;;22.05;12.32;;;;;;;;;;5035205;28;20095;-77
2022/06/28 09:22:41;;;;;;;32.10;15.80;;;;;;;;;;5012384;28;20073;-76
2022/06/28 09:25:13;;;;;;;34.47;14.05;;;;;;;;;;5007040;28;20037;-75
2022/06/28 09:27:41;;;;;;;25.45;14.57;;;;;;;;;;5009726;28;20048;-76
2022/06/28 09:30:13;;;;;;;20.15;13.43;;;;;;;;;;5010491;28;20033;-76
2022/06/28 09:32:40;;;;;;;26.17;14.05;;;;;;;;;;5009236;28;20709;-76
2022/06/28 09:35:12;;;;;;;26.60;13.20;;;;;;;;;;5021756;28;20126;-78
2022/06/28 09:37:48;;;;;;;28.48;14.98;;;;;;;;;;5015010;28;20038;-80
2022/06/28 09:40:19;;;;;;;24.98;14.02;;;;;;;;;;5009718;28;20033;-75
2022/06/28 09:42:46;;;;;;;19.00;12.77;;;;;;;;;;5018255;28;20057;-74
2022/06/28 09:45:16;;;;;;;19.73;13.85;;;;;;;;;;5003259;28;20369;-75
2022/06/28 09:47:48;;;;;;;21.88;11.85;;;;;;;;;;5010068;28;20083;-77
2022/06/28 09:50:20;;;;;;;23.75;13.45;;;;;;;;;;5009122;28;20034;-79
2022/06/28 09:52:48;;;;;;;19.63;12.35;;;;;;;;;;5009375;28;20037;-78
2022/06/28 09:55:15;;;;;;;17.42;10.93;;;;;;;;;;5005626;28;20026;-76
2022/06/28 09:57:47;;;;;;;22.17;12.27;;;;;;;;;;5030748;28;20029;-77
2022/06/28 10:00:15;;;;;;;22.92;12.20;;;;;;;;;;5011993;28;20721;-77
2022/06/28 10:02:43;;;;;;;29.08;12.27;;;;;;;;;;5013277;28;20037;-78
2022/06/28 10:05:10;;;;;;;15.77;11.77;;;;;;;;;;5003318;28;20029;-78
2022/06/28 10:07:36;;;;;;;20.52;11.88;;;;;;;;;;5024572;28;20037;-76
2022/06/28 10:10:05;;;;;;;23.45;12.90;;;;;;;;;;5016262;28;20590;-79
2022/06/28 10:15:20;;;;;;;21.00;13.82;;;;;;;;;;5004271;28;20171;-75
2022/06/28 10:17:56;;;;;;;19.23;13.18;;;;;;;;;;5011015;28;20033;-77
2022/06/28 10:20:47;;;;;;;27.05;12.77;;;;;;;;;;5004636;28;20164;-77
2022/06/28 10:23:33;;;;;;;16.40;10.17;;;;;;;;;;5007017;28;20117;-76
2022/06/28 10:26:19;;;;;;;18.17;10.45;;;;;;;;;;5009498;28;20489;-76
2022/06/28 10:29:09;;;;;;;15.13;10.13;;;;;;;;;;5011183;28;20044;-76
2022/06/28 10:31:39;;;;;;;13.60;9.73;;;;;;;;;;5034271;28;20117;-77
2022/06/28 10:34:15;;;;;;;18.55;12.10;;;;;;;;;;5037054;28;20061;-75
2022/06/28 10:36:45;;;;;;;21.45;12.00;;;;;;;;;;5010603;28;20105;-77
2022/06/28 10:39:23;;;;;;;17.48;10.30;;;;;;;;;;5014027;28;20041;-76
2022/06/28 10:42:10;;;;;;;17.85;10.60;;;;;;;;;;5010163;28;20481;-77
2022/06/28 10:44:35;;;;;;;14.75;10.00;;;;;;;;;;4992961;28;20046;-78
2022/06/28 10:47:12;;;;;;;13.40;9.13;;;;;;;;;;5008538;28;20103;-77
2022/06/28 10:49:54;;;;;;;15.43;9.95;;;;;;;;;;5010210;28;20061;-78
2022/06/28 10:52:31;;;;;;;17.77;10.57;;;;;;;;;;5011120;28;20175;-76
2022/06/28 10:54:56;;;;;;;15.15;10.57;;;;;;;;;;5022346;28;20152;-78
2022/06/28 10:57:24;;;;;;;20.02;11.75;;;;;;;;;;5014853;28;20132;-78
2022/06/28 10:59:53;;;;;;;22.45;12.02;;;;;;;;;;5024016;28;20029;-76
2022/06/28 11:02:25;;;;;;;17.48;11.43;;;;;;;;;;5009560;28;20037;-75
2022/06/28 11:05:09;;;;;;;17.13;11.02;;;;;;;;;;5003515;28;20029;-75
2022/06/28 11:07:37;;;;;;;19.00;12.18;;;;;;;;;;5010388;28;20120;-79
2022/06/28 11:10:11;;;;;;;14.93;9.65;;;;;;;;;;5011283;28;20724;-78
2022/06/28 11:12:40;;;;;;;17.45;11.82;;;;;;;;;;5016442;28;20055;-78
2022/06/28 11:15:08;;;;;;;19.13;11.30;;;;;;;;;;5015239;28;20026;-81
2022/06/28 11:17:44;;;;;;;17.77;10.43;;;;;;;;;;5022531;28;20037;-79
2022/06/28 11:20:15;;;;;;;13.43;10.15;;;;;;;;;;5025728;28;20018;-81
2022/06/28 11:22:49;;;;;;;14.82;10.80;;;;;;;;;;5023059;28;20071;-75
2022/06/28 11:25:18;;;;;;;16.10;10.68;;;;;;;;;;5006192;28;20025;-77
2022/06/28 11:27:52;;;;;;;19.10;11.35;;;;;;;;;;5018594;28;20045;-77
2022/06/28 11:30:19;;;;;;;17.55;11.68;;;;;;;;;;5010894;28;20021;-77
2022/06/28 11:32:50;;;;;;;15.57;11.25;;;;;;;;;;5022920;28;20041;-77
2022/06/28 11:35:23;;;;;;;18.08;11.20;;;;;;;;;;5009396;28;20034;-77
2022/06/28 11:37:53;;;;;;;16.50;10.80;;;;;;;;;;5009956;28;20041;-78
2022/06/28 11:41:10;;;;;;;18.02;11.85;;;;;;;;;;5011656;28;20496;-77
2022/06/28 11:43:36;;;;;;;22.77;12.70;;;;;;;;;;5016913;28;20037;-78
2022/06/28 11:46:04;;;;;;;35.92;27.48;;;;;;;;;;5003919;28;21295;-78
2022/06/28 11:48:31;;;;;;;18.80;11.13;;;;;;;;;;5026143;28;20037;-76
2022/06/28 11:50:59;;;;;;;16.83;10.25;;;;;;;;;;4995859;28;20064;-76
2022/06/28 11:53:30;;;;;;;15.50;10.23;;;;;;;;;;5000826;28;20124;-76
2022/06/28 11:55:58;;;;;;;16.63;8.55;;;;;;;;;;5000501;28;20366;-76
2022/06/28 11:58:25;;;;;;;13.45;9.90;;;;;;;;;;5006086;28;20469;-75
2022/06/28 12:01:07;;;;;;;14.88;9.02;;;;;;;;;;5008875;28;20083;-77
2022/06/28 12:03:44;;;;;;;18.75;9.27;;;;;;;;;;5006122;28;20075;-76
2022/06/28 12:06:22;;;;;;;18.80;9.68;;;;;;;;;;5006437;28;20029;-77
2022/06/28 12:08:53;;;;;;;11.63;8.88;;;;;;;;;;5026067;28;20025;-76
2022/06/28 12:11:47;;;;;;;19.05;11.18;;;;;;;;;;5032261;28;20039;-76
2022/06/28 12:14:20;;;;;;;16.77;9.95;;;;;;;;;;5003404;28;20030;-77
2022/06/28 12:16:51;;;;;;;14.05;8.40;;;;;;;;;;5005439;28;20112;-77
2022/06/28 12:19:52;;;;;;;11.40;8.27;;;;;;;;;;5010066;28;20072;-77
2022/06/28 12:22:20;;;;;;;16.08;8.80;;;;;;;;;;5006621;28;20050;-76
2022/06/28 12:24:51;;;;;;;15.98;8.13;;;;;;;;;;5007563;28;20042;-79
2022/06/28 12:27:27;;;;;;;112.95;63.85;;;;;;;;;;5008597;28;20034;-78
2022/06/28 12:29:54;;;;;;;14.82;8.93;;;;;;;;;;5011202;28;20030;-76
2022/06/28 12:32:21;;;;;;;13.05;8.18;;;;;;;;;;5008867;28;20041;-76
2022/06/28 12:34:46;;;;;;;14.82;8.23;;;;;;;;;;5006770;28;20038;-77
2022/06/28 12:37:12;;;;;;;11.75;8.43;;;;;;;;;;5009027;28;20030;-77
2022/06/28 12:39:41;;;;;;;12.10;8.43;;;;;;;;;;5013349;28;20029;-77
2022/06/28 12:42:07;;;;;;;11.65;8.70;;;;;;;;;;5009890;28;20041;-77
2022/06/28 12:44:36;;;;;;;12.27;9.52;;;;;;;;;;5004545;28;21060;-77
2022/06/28 12:47:02;;;;;;;18.42;9.23;;;;;;;;;;5019223;28;20152;-76
2022/06/28 12:49:31;;;;;;;12.32;8.20;;;;;;;;;;5010615;28;20500;-78
2022/06/28 12:51:57;;;;;;;14.98;8.52;;;;;;;;;;5023247;28;20032;-76
2022/06/28 12:54:22;;;;;;;11.60;8.27;;;;;;;;;;5020637;28;20394;-76
2022/06/28 12:56:48;;;;;;;12.75;8.98;;;;;;;;;;5005751;28;20069;-76
2022/06/28 12:59:14;;;;;;;9.35;7.43;;;;;;;;;;5008915;28;20041;-78
2022/06/28 13:01:39;;;;;;;12.25;8.90;;;;;;;;;;5022235;28;20370;-77
2022/06/28 13:04:05;;;;;;;10.80;8.63;;;;;;;;;;5001048;28;20170;-79
2022/06/28 13:06:31;;;;;;;12.70;9.35;;;;;;;;;;5007372;28;20021;-77
2022/06/28 13:08:56;;;;;;;11.90;8.07;;;;;;;;;;5011550;28;20057;-78
2022/06/28 13:11:22;;;;;;;14.05;8.82;;;;;;;;;;5012194;28;20052;-77
2022/06/28 13:13:51;;;;;;;19.42;9.93;;;;;;;;;;5010603;28;20029;-75
2022/06/28 13:16:18;;;;;;;13.50;9.52;;;;;;;;;;5005972;28;20033;-77
2022/06/28 13:18:44;;;;;;;12.70;9.93;;;;;;;;;;4999345;28;20135;-78
2022/06/28 13:21:11;;;;;;;13.65;8.98;;;;;;;;;;5011230;28;20045;-80
2022/06/28 13:23:37;;;;;;;15.13;10.73;;;;;;;;;;5006769;28;20045;-77
2022/06/28 13:26:03;;;;;;;13.98;9.23;;;;;;;;;;5005023;28;20725;-75
2022/06/28 13:28:30;;;;;;;10.93;9.05;;;;;;;;;;5011297;28;20025;-78
2022/06/28 13:30:56;;;;;;;12.20;9.50;;;;;;;;;;5010740;28;20033;-75
2022/06/28 13:33:22;;;;;;;18.08;10.55;;;;;;;;;;5040586;28;20033;-77
2022/06/28 13:35:48;;;;;;;18.42;13.68;;;;;;;;;;5003817;28;20038;-77
2022/06/28 13:38:16;;;;;;;17.10;10.00;;;;;;;;;;5025408;28;20091;-77
2022/06/28 13:40:43;;;;;;;12.93;9.75;;;;;;;;;;5025587;28;20297;-79
2022/06/28 13:45:54;;;;;;;21.40;11.50;;;;;;;;;;5018684;28;20758;-78
2022/06/28 13:48:20;;;;;;;16.92;10.07;;;;;;;;;;5025144;28;20026;-77
2022/06/28 13:50:47;;;;;;;13.93;10.95;;;;;;;;;;5029314;28;20148;-78
2022/06/28 13:53:12;;;;;;;17.73;11.73;;;;;;;;;;5029266;28;20021;-79
2022/06/28 13:55:38;;;;;;;16.55;11.25;;;;;;;;;;5038267;28;20029;-77
2022/06/28 13:58:04;;;;;;;16.13;12.40;;;;;;;;;;5033129;28;20036;-77
2022/06/28 14:00:31;;;;;;;18.80;10.55;;;;;;;;;;5031045;28;20462;-80
2022/06/28 14:02:57;;;;;;;15.38;10.98;;;;;;;;;;5038898;28;20033;-82
2022/06/28 14:05:24;;;;;;;17.40;10.85;;;;;;;;;;5042986;28;20037;-78
2022/06/28 14:07:49;;;;;;;16.13;10.90;;;;;;;;;;5043484;28;20029;-79
2022/06/28 14:10:15;;;;;;;15.32;10.73;;;;;;;;;;5055911;28;20060;-78
2022/06/28 14:12:41;;;;;;;16.20;11.30;;;;;;;;;;5060352;28;20380;-80
2022/06/28 14:15:08;;;;;;;20.92;12.15;;;;;;;;;;5032141;28;20044;-80
2022/06/28 14:17:33;;;;;;;18.50;10.68;;;;;;;;;;5040787;28;20036;-78
2022/06/28 14:19:59;;;;;;;15.77;10.63;;;;;;;;;;5041237;28;20567;-80
2022/06/28 14:22:24;;;;;;;34.58;12.00;;;;;;;;;;5044225;28;20111;-77
2022/06/28 14:24:51;;;;;;;21.52;11.40;;;;;;;;;;5040466;28;20043;-80
2022/06/28 14:27:17;;;;;;;20.73;11.23;;;;;;;;;;5027690;28;20037;-79
2022/06/28 14:29:43;;;;;;;15.07;10.90;;;;;;;;;;5023390;28;20037;-80
2022/06/28 14:32:09;;;;;;;17.45;11.63;;;;;;;;;;5025840;28;20059;-79
2022/06/28 14:34:35;;;;;;;15.13;11.23;;;;;;;;;;5028757;28;20029;-80
2022/06/28 14:37:01;;;;;;;12.40;10.13;;;;;;;;;;5008611;28;20040;-75
2022/06/28 14:39:28;;;;;;;17.00;11.02;;;;;;;;;;5042766;28;20186;-82
2022/06/28 14:41:54;;;;;;;26.90;13.40;;;;;;;;;;5013045;28;20033;-80
2022/06/28 14:44:20;;;;;;;13.18;10.52;;;;;;;;;;5042005;28;20068;-83
2022/06/28 14:46:45;;;;;;;13.85;9.70;;;;;;;;;;5029362;28;20481;-78